sensor_id;sensor_type;location;lat;lon;timestamp;P1;durP1;ratioP1;P2;durP2;ratioP2
74293;SDS011;62688;59.904;10.738;2022-08-11T00:01:10;14.75;;;3.65;;
74293;SDS011;62688;59.904;10.738;2022-08-11T00:03:49;14.40;;;3.85;;
74293;SDS011;62688;59.904;10.738;2022-08-11T00:06:30;10.27;;;3.10;;
74293;SDS011;62688;59.904;10.738;2022-08-11T00:08:59;15.90;;;3.92;;
74293;SDS011;62688;59.904;10.738;2022-08-11T00:11:33;14.98;;;3.78;;
74293;SDS011;62688;59.904;10.738;2022-08-11T00:14:04;10.20;;;3.58;;
74293;SDS011;62688;59.904;10.738;2022-08-11T00:16:38;13.00;;;3.15;;
74293;SDS011;62688;59.904;10.738;2022-08-11T00:19:05;7.53;;;2.83;;
74293;SDS011;62688;59.904;10.738;2022-08-11T00:21:33;11.00;;;3.13;;
74293;SDS011;62688;59.904;10.738;2022-08-11T00:24:06;14.10;;;3.55;;
74293;SDS011;62688;59.904;10.738;2022-08-11T00:26:33;13.80;;;3.28;;
74293;SDS011;62688;59.904;10.738;2022-08-11T00:29:07;14.07;;;3.28;;
74293;SDS011;62688;59.904;10.738;2022-08-11T00:31:34;8.77;;;3.17;;
74293;SDS011;62688;59.904;10.738;2022-08-11T00:34:00;7.18;;;2.75;;
74293;SDS011;62688;59.904;10.738;2022-08-11T00:36:28;8.90;;;3.58;;
74293;SDS011;62688;59.904;10.738;2022-08-11T00:39:21;10.50;;;3.00;;
74293;SDS011;62688;59.904;10.738;2022-08-11T01:12:31;12.95;;;3.72;;
74293;SDS011;62688;59.904;10.738;2022-08-11T01:24:17;8.90;;;3.43;;
74293;SDS011;62688;59.904;10.738;2022-08-11T01:35:29;10.20;;;2.92;;
74293;SDS011;62688;59.904;10.738;2022-08-11T01:49:22;17.73;;;3.88;;
74293;SDS011;62688;59.904;10.738;2022-08-11T01:54:55;15.48;;;3.70;;
74293;SDS011;62688;59.904;10.738;2022-08-11T01:58:25;11.20;;;3.20;;
74293;SDS011;62688;59.904;10.738;2022-08-11T02:01:10;9.18;;;3.00;;
74293;SDS011;62688;59.904;10.738;2022-08-11T02:04:29;11.20;;;3.35;;
74293;SDS011;62688;59.904;10.738;2022-08-11T02:07:03;11.38;;;3.38;;
74293;SDS011;62688;59.904;10.738;2022-08-11T02:09:56;14.00;;;4.13;;
74293;SDS011;62688;59.904;10.738;2022-08-11T02:12:51;13.07;;;4.93;;
74293;SDS011;62688;59.904;10.738;2022-08-11T02:20:44;17.50;;;5.15;;
74293;SDS011;62688;59.904;10.738;2022-08-11T02:29:14;13.48;;;3.22;;
74293;SDS011;62688;59.904;10.738;2022-08-11T02:32:30;13.68;;;4.10;;
74293;SDS011;62688;59.904;10.738;2022-08-11T02:34:58;12.10;;;3.50;;
74293;SDS011;62688;59.904;10.738;2022-08-11T02:50:25;11.43;;;3.78;;
74293;SDS011;62688;59.904;10.738;2022-08-11T02:52:57;11.20;;;3.85;;
74293;SDS011;62688;59.904;10.738;2022-08-11T02:58:36;10.85;;;3.60;;
74293;SDS011;62688;59.904;10.738;2022-08-11T03:01:38;12.13;;;3.35;;
74293;SDS011;62688;59.904;10.738;2022-08-11T03:04:11;10.50;;;3.20;;
74293;SDS011;62688;59.904;10.738;2022-08-11T03:09:39;13.30;;;4.20;;
74293;SDS011;62688;59.904;10.738;2022-08-11T03:12:12;9.45;;;3.83;;
74293;SDS011;62688;59.904;10.738;2022-08-11T03:21:19;9.93;;;3.95;;
74293;SDS011;62688;59.904;10.738;2022-08-11T03:34:43;16.40;;;5.35;;
74293;SDS011;62688;59.904;10.738;2022-08-11T03:46:07;15.27;;;5.15;;
74293;SDS011;62688;59.904;10.738;2022-08-11T03:54:27;12.93;;;4.68;;
74293;SDS011;62688;59.904;10.738;2022-08-11T04:00:19;13.93;;;4.03;;
74293;SDS011;62688;59.904;10.738;2022-08-11T04:17:24;10.45;;;3.53;;
74293;SDS011;62688;59.904;10.738;2022-08-11T04:20:06;14.18;;;4.60;;
74293;SDS011;62688;59.904;10.738;2022-08-11T04:31:35;13.68;;;4.53;;
74293;SDS011;62688;59.904;10.738;2022-08-11T05:09:24;5.68;;;2.70;;
74293;SDS011;62688;59.904;10.738;2022-08-11T05:12:08;7.75;;;2.72;;
74293;SDS011;62688;59.904;10.738;2022-08-11T05:14:49;4.90;;;2.37;;
74293;SDS011;62688;59.904;10.738;2022-08-11T05:17:36;7.78;;;3.22;;
74293;SDS011;62688;59.904;10.738;2022-08-11T05:23:11;6.95;;;2.33;;
74293;SDS011;62688;59.904;10.738;2022-08-11T05:25:58;6.47;;;2.70;;
74293;SDS011;62688;59.904;10.738;2022-08-11T05:28:59;5.82;;;2.38;;
74293;SDS011;62688;59.904;10.738;2022-08-11T05:31:45;11.55;;;2.95;;
74293;SDS011;62688;59.904;10.738;2022-08-11T05:34:40;6.43;;;2.63;;
74293;SDS011;62688;59.904;10.738;2022-08-11T05:37:33;5.55;;;2.30;;
74293;SDS011;62688;59.904;10.738;2022-08-11T05:40:12;6.68;;;2.60;;
74293;SDS011;62688;59.904;10.738;2022-08-11T05:42:59;7.20;;;2.70;;
74293;SDS011;62688;59.904;10.738;2022-08-11T05:45:54;4.72;;;2.20;;
74293;SDS011;62688;59.904;10.738;2022-08-11T05:48:41;5.45;;;1.98;;
74293;SDS011;62688;59.904;10.738;2022-08-11T05:51:39;5.85;;;1.90;;
74293;SDS011;62688;59.904;10.738;2022-08-11T05:54:26;4.43;;;2.00;;
74293;SDS011;62688;59.904;10.738;2022-08-11T05:57:18;4.47;;;1.77;;
74293;SDS011;62688;59.904;10.738;2022-08-11T05:59:57;4.70;;;2.00;;
74293;SDS011;62688;59.904;10.738;2022-08-11T06:02:38;4.80;;;2.13;;
74293;SDS011;62688;59.904;10.738;2022-08-11T06:05:08;6.72;;;1.80;;
74293;SDS011;62688;59.904;10.738;2022-08-11T06:07:35;6.85;;;2.40;;
74293;SDS011;62688;59.904;10.738;2022-08-11T06:10:02;3.30;;;1.88;;
74293;SDS011;62688;59.904;10.738;2022-08-11T06:12:30;4.47;;;1.88;;
74293;SDS011;62688;59.904;10.738;2022-08-11T06:15:02;5.80;;;2.17;;
74293;SDS011;62688;59.904;10.738;2022-08-11T06:17:30;4.90;;;1.80;;
74293;SDS011;62688;59.904;10.738;2022-08-11T06:20:06;4.93;;;2.08;;
74293;SDS011;62688;59.904;10.738;2022-08-11T06:22:44;4.05;;;1.60;;
74293;SDS011;62688;59.904;10.738;2022-08-11T06:25:11;3.90;;;2.15;;
74293;SDS011;62688;59.904;10.738;2022-08-11T06:27:39;4.03;;;2.00;;
74293;SDS011;62688;59.904;10.738;2022-08-11T06:30:08;5.72;;;1.88;;
74293;SDS011;62688;59.904;10.738;2022-08-11T06:32:45;3.45;;;1.88;;
74293;SDS011;62688;59.904;10.738;2022-08-11T06:35:24;5.05;;;2.17;;
74293;SDS011;62688;59.904;10.738;2022-08-11T06:43:44;8.48;;;2.50;;
74293;SDS011;62688;59.904;10.738;2022-08-11T06:46:34;5.95;;;2.50;;
74293;SDS011;62688;59.904;10.738;2022-08-11T06:49:03;4.80;;;2.20;;
74293;SDS011;62688;59.904;10.738;2022-08-11T06:51:53;10.20;;;2.80;;
74293;SDS011;62688;59.904;10.738;2022-08-11T06:54:22;8.80;;;2.80;;
74293;SDS011;62688;59.904;10.738;2022-08-11T06:56:49;7.05;;;2.75;;
74293;SDS011;62688;59.904;10.738;2022-08-11T06:59:33;5.68;;;2.60;;
74293;SDS011;62688;59.904;10.738;2022-08-11T07:05:46;6.80;;;2.70;;
74293;SDS011;62688;59.904;10.738;2022-08-11T07:08:46;9.55;;;2.95;;
74293;SDS011;62688;59.904;10.738;2022-08-11T07:12:40;5.00;;;2.50;;
74293;SDS011;62688;59.904;10.738;2022-08-11T07:14:59;5.65;;;1.90;;
74293;SDS011;62688;59.904;10.738;2022-08-11T07:17:51;4.40;;;2.55;;
74293;SDS011;62688;59.904;10.738;2022-08-11T07:20:37;7.38;;;2.50;;
74293;SDS011;62688;59.904;10.738;2022-08-11T07:23:22;9.43;;;2.20;;
74293;SDS011;62688;59.904;10.738;2022-08-11T07:26:08;6.10;;;2.25;;
74293;SDS011;62688;59.904;10.738;2022-08-11T07:29:06;8.85;;;2.60;;
74293;SDS011;62688;59.904;10.738;2022-08-11T07:31:37;6.07;;;2.47;;
74293;SDS011;62688;59.904;10.738;2022-08-11T07:36:56;4.32;;;2.47;;
74293;SDS011;62688;59.904;10.738;2022-08-11T07:39:25;5.95;;;2.35;;
74293;SDS011;62688;59.904;10.738;2022-08-11T07:41:53;8.18;;;2.30;;
74293;SDS011;62688;59.904;10.738;2022-08-11T07:44:21;5.70;;;2.40;;
74293;SDS011;62688;59.904;10.738;2022-08-11T07:46:53;3.08;;;1.83;;
74293;SDS011;62688;59.904;10.738;2022-08-11T07:49:39;5.95;;;2.17;;
74293;SDS011;62688;59.904;10.738;2022-08-11T07:52:32;3.60;;;1.70;;
74293;SDS011;62688;59.904;10.738;2022-08-11T07:55:03;4.30;;;2.13;;
74293;SDS011;62688;59.904;10.738;2022-08-11T07:57:39;4.85;;;2.17;;
74293;SDS011;62688;59.904;10.738;2022-08-11T08:03:39;8.10;;;3.03;;
74293;SDS011;62688;59.904;10.738;2022-08-11T08:06:25;4.72;;;2.20;;
74293;SDS011;62688;59.904;10.738;2022-08-11T08:09:11;4.57;;;1.63;;
74293;SDS011;62688;59.904;10.738;2022-08-11T08:11:59;4.47;;;1.75;;
74293;SDS011;62688;59.904;10.738;2022-08-11T08:14:44;3.42;;;2.00;;
74293;SDS011;62688;59.904;10.738;2022-08-11T08:17:29;4.90;;;1.90;;
74293;SDS011;62688;59.904;10.738;2022-08-11T08:20:16;3.90;;;2.13;;
74293;SDS011;62688;59.904;10.738;2022-08-11T08:22:49;3.22;;;1.83;;
74293;SDS011;62688;59.904;10.738;2022-08-11T08:25:28;2.63;;;1.70;;
74293;SDS011;62688;59.904;10.738;2022-08-11T08:27:59;4.40;;;2.00;;
74293;SDS011;62688;59.904;10.738;2022-08-11T08:30:29;3.33;;;2.25;;
74293;SDS011;62688;59.904;10.738;2022-08-11T08:33:35;2.70;;;1.30;;
74293;SDS011;62688;59.904;10.738;2022-08-11T08:36:01;2.60;;;1.55;;
74293;SDS011;62688;59.904;10.738;2022-08-11T08:41:11;5.07;;;2.10;;
74293;SDS011;62688;59.904;10.738;2022-08-11T08:43:39;3.88;;;1.52;;
74293;SDS011;62688;59.904;10.738;2022-08-11T08:46:07;2.15;;;1.40;;
74293;SDS011;62688;59.904;10.738;2022-08-11T08:48:34;1.98;;;1.38;;
74293;SDS011;62688;59.904;10.738;2022-08-11T08:51:03;2.38;;;1.70;;
74293;SDS011;62688;59.904;10.738;2022-08-11T08:53:52;3.92;;;1.65;;
74293;SDS011;62688;59.904;10.738;2022-08-11T08:56:19;3.72;;;1.63;;
74293;SDS011;62688;59.904;10.738;2022-08-11T08:58:54;4.40;;;1.50;;
74293;SDS011;62688;59.904;10.738;2022-08-11T09:01:23;1.58;;;1.15;;
74293;SDS011;62688;59.904;10.738;2022-08-11T09:03:51;2.28;;;1.50;;
74293;SDS011;62688;59.904;10.738;2022-08-11T09:06:17;2.83;;;1.25;;
74293;SDS011;62688;59.904;10.738;2022-08-11T09:08:43;4.50;;;1.70;;
74293;SDS011;62688;59.904;10.738;2022-08-11T09:11:10;2.17;;;1.20;;
74293;SDS011;62688;59.904;10.738;2022-08-11T09:13:56;1.52;;;1.40;;
74293;SDS011;62688;59.904;10.738;2022-08-11T09:16:22;3.38;;;1.60;;
74293;SDS011;62688;59.904;10.738;2022-08-11T09:18:49;3.08;;;1.50;;
74293;SDS011;62688;59.904;10.738;2022-08-11T09:21:16;3.50;;;1.25;;
74293;SDS011;62688;59.904;10.738;2022-08-11T09:23:46;1.27;;;1.17;;
74293;SDS011;62688;59.904;10.738;2022-08-11T09:26:32;1.30;;;1.00;;
74293;SDS011;62688;59.904;10.738;2022-08-11T09:29:19;1.40;;;1.30;;
74293;SDS011;62688;59.904;10.738;2022-08-11T09:31:45;3.20;;;1.48;;
74293;SDS011;62688;59.904;10.738;2022-08-11T09:34:12;2.08;;;0.98;;
74293;SDS011;62688;59.904;10.738;2022-08-11T09:36:39;1.13;;;0.95;;
74293;SDS011;62688;59.904;10.738;2022-08-11T09:39:26;1.90;;;1.80;;
74293;SDS011;62688;59.904;10.738;2022-08-11T09:42:12;1.40;;;1.30;;
74293;SDS011;62688;59.904;10.738;2022-08-11T09:44:40;2.05;;;1.00;;
74293;SDS011;62688;59.904;10.738;2022-08-11T09:47:19;1.13;;;1.02;;
74293;SDS011;62688;59.904;10.738;2022-08-11T09:50:01;2.05;;;1.10;;
74293;SDS011;62688;59.904;10.738;2022-08-11T09:52:45;0.80;;;0.80;;
74293;SDS011;62688;59.904;10.738;2022-08-11T09:55:12;1.50;;;0.90;;
74293;SDS011;62688;59.904;10.738;2022-08-11T09:57:40;2.35;;;0.90;;
74293;SDS011;62688;59.904;10.738;2022-08-11T10:00:30;1.88;;;1.10;;
74293;SDS011;62688;59.904;10.738;2022-08-11T10:03:01;1.35;;;1.17;;
74293;SDS011;62688;59.904;10.738;2022-08-11T10:05:31;1.30;;;1.20;;
74293;SDS011;62688;59.904;10.738;2022-08-11T10:08:16;1.73;;;1.10;;
74293;SDS011;62688;59.904;10.738;2022-08-11T10:10:46;1.65;;;1.00;;
74293;SDS011;62688;59.904;10.738;2022-08-11T10:13:17;0.70;;;0.70;;
74293;SDS011;62688;59.904;10.738;2022-08-11T10:15:45;1.00;;;0.80;;
74293;SDS011;62688;59.904;10.738;2022-08-11T10:18:14;0.90;;;0.80;;
74293;SDS011;62688;59.904;10.738;2022-08-11T10:21:21;1.48;;;1.02;;
74293;SDS011;62688;59.904;10.738;2022-08-11T10:23:52;0.95;;;0.80;;
74293;SDS011;62688;59.904;10.738;2022-08-11T10:26:37;0.95;;;0.75;;
74293;SDS011;62688;59.904;10.738;2022-08-11T10:29:25;1.70;;;0.88;;
74293;SDS011;62688;59.904;10.738;2022-08-11T10:32:12;1.92;;;0.90;;
74293;SDS011;62688;59.904;10.738;2022-08-11T10:35:01;2.40;;;1.00;;
74293;SDS011;62688;59.904;10.738;2022-08-11T10:37:28;1.25;;;1.00;;
74293;SDS011;62688;59.904;10.738;2022-08-11T10:40:01;2.30;;;1.20;;
74293;SDS011;62688;59.904;10.738;2022-08-11T10:42:28;1.90;;;1.20;;
74293;SDS011;62688;59.904;10.738;2022-08-11T10:45:13;2.97;;;0.93;;
74293;SDS011;62688;59.904;10.738;2022-08-11T10:47:59;1.10;;;0.95;;
74293;SDS011;62688;59.904;10.738;2022-08-11T10:50:25;1.25;;;1.15;;
74293;SDS011;62688;59.904;10.738;2022-08-11T10:53:11;1.42;;;0.70;;
74293;SDS011;62688;59.904;10.738;2022-08-11T10:55:56;1.60;;;0.85;;
74293;SDS011;62688;59.904;10.738;2022-08-11T10:58:42;2.40;;;1.00;;
74293;SDS011;62688;59.904;10.738;2022-08-11T11:01:40;1.20;;;1.08;;
74293;SDS011;62688;59.904;10.738;2022-08-11T11:04:14;1.25;;;0.90;;
74293;SDS011;62688;59.904;10.738;2022-08-11T11:06:50;1.00;;;0.70;;
74293;SDS011;62688;59.904;10.738;2022-08-11T11:09:26;2.30;;;0.90;;
74293;SDS011;62688;59.904;10.738;2022-08-11T11:11:58;1.20;;;1.00;;
74293;SDS011;62688;59.904;10.738;2022-08-11T11:14:49;4.07;;;1.00;;
74293;SDS011;62688;59.904;10.738;2022-08-11T11:17:37;2.83;;;1.00;;
74293;SDS011;62688;59.904;10.738;2022-08-11T11:20:29;2.08;;;1.00;;
74293;SDS011;62688;59.904;10.738;2022-08-11T11:31:32;2.00;;;0.95;;
74293;SDS011;62688;59.904;10.738;2022-08-11T11:37:01;2.03;;;0.80;;
74293;SDS011;62688;59.904;10.738;2022-08-11T11:39:29;1.30;;;0.73;;
74293;SDS011;62688;59.904;10.738;2022-08-11T11:41:59;3.47;;;0.80;;
74293;SDS011;62688;59.904;10.738;2022-08-11T11:44:28;1.17;;;0.70;;
74293;SDS011;62688;59.904;10.738;2022-08-11T11:46:54;1.20;;;0.90;;
74293;SDS011;62688;59.904;10.738;2022-08-11T11:49:22;1.48;;;0.90;;
74293;SDS011;62688;59.904;10.738;2022-08-11T11:51:51;1.02;;;0.80;;
74293;SDS011;62688;59.904;10.738;2022-08-11T11:54:19;1.13;;;0.70;;
74293;SDS011;62688;59.904;10.738;2022-08-11T11:56:47;1.52;;;0.95;;
74293;SDS011;62688;59.904;10.738;2022-08-11T11:59:17;3.13;;;0.80;;
74293;SDS011;62688;59.904;10.738;2022-08-11T12:02:12;0.70;;;0.68;;
74293;SDS011;62688;59.904;10.738;2022-08-11T12:04:40;1.10;;;0.82;;
74293;SDS011;62688;59.904;10.738;2022-08-11T12:07:09;1.55;;;1.10;;
74293;SDS011;62688;59.904;10.738;2022-08-11T12:09:54;1.45;;;0.85;;
74293;SDS011;62688;59.904;10.738;2022-08-11T12:12:21;0.80;;;0.80;;
74293;SDS011;62688;59.904;10.738;2022-08-11T12:15:06;1.10;;;0.63;;
74293;SDS011;62688;59.904;10.738;2022-08-11T12:17:36;0.85;;;0.80;;
74293;SDS011;62688;59.904;10.738;2022-08-11T12:20:02;1.10;;;0.82;;
74293;SDS011;62688;59.904;10.738;2022-08-11T12:22:29;0.47;;;0.45;;
74293;SDS011;62688;59.904;10.738;2022-08-11T12:25:14;0.68;;;0.68;;
74293;SDS011;62688;59.904;10.738;2022-08-11T12:27:58;0.60;;;0.60;;
74293;SDS011;62688;59.904;10.738;2022-08-11T12:30:25;0.77;;;0.73;;
74293;SDS011;62688;59.904;10.738;2022-08-11T12:32:50;0.70;;;0.70;;
74293;SDS011;62688;59.904;10.738;2022-08-11T12:35:17;0.82;;;0.82;;
74293;SDS011;62688;59.904;10.738;2022-08-11T12:37:47;1.60;;;0.80;;
74293;SDS011;62688;59.904;10.738;2022-08-11T12:40:21;3.80;;;1.02;;
74293;SDS011;62688;59.904;10.738;2022-08-11T12:43:09;1.00;;;0.90;;
74293;SDS011;62688;59.904;10.738;2022-08-11T12:46:01;1.38;;;0.80;;
74293;SDS011;62688;59.904;10.738;2022-08-11T12:48:43;1.08;;;0.80;;
74293;SDS011;62688;59.904;10.738;2022-08-11T12:51:31;1.13;;;0.93;;
74293;SDS011;62688;59.904;10.738;2022-08-11T12:54:28;1.20;;;0.90;;
74293;SDS011;62688;59.904;10.738;2022-08-11T12:57:05;1.98;;;0.73;;
74293;SDS011;62688;59.904;10.738;2022-08-11T12:59:54;1.00;;;0.80;;
74293;SDS011;62688;59.904;10.738;2022-08-11T13:02:39;4.00;;;0.95;;
74293;SDS011;62688;59.904;10.738;2022-08-11T13:05:24;0.60;;;0.60;;
74293;SDS011;62688;59.904;10.738;2022-08-11T13:07:50;1.02;;;0.95;;
74293;SDS011;62688;59.904;10.738;2022-08-11T13:10:17;1.15;;;0.75;;
74293;SDS011;62688;59.904;10.738;2022-08-11T13:13:03;3.13;;;1.00;;
74293;SDS011;62688;59.904;10.738;2022-08-11T13:15:31;1.00;;;1.00;;
74293;SDS011;62688;59.904;10.738;2022-08-11T13:17:58;1.45;;;0.85;;
74293;SDS011;62688;59.904;10.738;2022-08-11T13:20:25;0.77;;;0.73;;
74293;SDS011;62688;59.904;10.738;2022-08-11T13:22:52;1.45;;;0.85;;
74293;SDS011;62688;59.904;10.738;2022-08-11T13:25:20;1.70;;;1.08;;
74293;SDS011;62688;59.904;10.738;2022-08-11T13:27:48;0.82;;;0.80;;
74293;SDS011;62688;59.904;10.738;2022-08-11T13:30:16;4.90;;;1.00;;
74293;SDS011;62688;59.904;10.738;2022-08-11T13:33:01;1.27;;;0.93;;
74293;SDS011;62688;59.904;10.738;2022-08-11T13:35:31;1.10;;;1.00;;
74293;SDS011;62688;59.904;10.738;2022-08-11T13:37:57;1.83;;;1.10;;
74293;SDS011;62688;59.904;10.738;2022-08-11T13:40:26;2.35;;;1.30;;
74293;SDS011;62688;59.904;10.738;2022-08-11T13:42:53;1.60;;;0.90;;
74293;SDS011;62688;59.904;10.738;2022-08-11T13:45:21;7.63;;;1.33;;
74293;SDS011;62688;59.904;10.738;2022-08-11T13:47:48;1.42;;;1.20;;
74293;SDS011;62688;59.904;10.738;2022-08-11T13:50:15;1.30;;;1.20;;
74293;SDS011;62688;59.904;10.738;2022-08-11T13:52:42;1.73;;;1.30;;
74293;SDS011;62688;59.904;10.738;2022-08-11T13:55:10;1.50;;;1.10;;
74293;SDS011;62688;59.904;10.738;2022-08-11T13:57:47;1.20;;;1.10;;
74293;SDS011;62688;59.904;10.738;2022-08-11T14:00:16;1.83;;;1.20;;
74293;SDS011;62688;59.904;10.738;2022-08-11T14:02:42;1.20;;;1.08;;
74293;SDS011;62688;59.904;10.738;2022-08-11T14:05:13;1.70;;;1.10;;
74293;SDS011;62688;59.904;10.738;2022-08-11T14:07:45;1.60;;;1.20;;
74293;SDS011;62688;59.904;10.738;2022-08-11T14:10:17;2.17;;;1.20;;
74293;SDS011;62688;59.904;10.738;2022-08-11T14:12:46;2.53;;;1.40;;
74293;SDS011;62688;59.904;10.738;2022-08-11T14:15:38;1.48;;;1.10;;
74293;SDS011;62688;59.904;10.738;2022-08-11T14:18:08;2.20;;;1.30;;
74293;SDS011;62688;59.904;10.738;2022-08-11T14:20:56;2.13;;;1.30;;
74293;SDS011;62688;59.904;10.738;2022-08-11T14:23:52;3.05;;;1.50;;
74293;SDS011;62688;59.904;10.738;2022-08-11T14:28:59;1.83;;;1.20;;
74293;SDS011;62688;59.904;10.738;2022-08-11T14:31:29;2.90;;;1.30;;
74293;SDS011;62688;59.904;10.738;2022-08-11T14:33:57;3.67;;;1.65;;
74293;SDS011;62688;59.904;10.738;2022-08-11T14:38:58;2.55;;;1.83;;
74293;SDS011;62688;59.904;10.738;2022-08-11T14:41:57;4.18;;;1.65;;
74293;SDS011;62688;59.904;10.738;2022-08-11T14:44:44;2.10;;;1.38;;
74293;SDS011;62688;59.904;10.738;2022-08-11T14:47:31;2.88;;;2.00;;
74293;SDS011;62688;59.904;10.738;2022-08-11T14:49:58;4.10;;;2.05;;
74293;SDS011;62688;59.904;10.738;2022-08-11T14:52:26;2.38;;;1.48;;
74293;SDS011;62688;59.904;10.738;2022-08-11T14:54:55;2.22;;;1.50;;
74293;SDS011;62688;59.904;10.738;2022-08-11T14:57:40;3.97;;;1.35;;
74293;SDS011;62688;59.904;10.738;2022-08-11T15:00:08;2.33;;;1.42;;
74293;SDS011;62688;59.904;10.738;2022-08-11T15:02:39;1.50;;;1.30;;
74293;SDS011;62688;59.904;10.738;2022-08-11T15:05:24;2.72;;;1.48;;
74293;SDS011;62688;59.904;10.738;2022-08-11T15:07:51;4.95;;;1.25;;
74293;SDS011;62688;59.904;10.738;2022-08-11T15:10:19;6.65;;;1.50;;
74293;SDS011;62688;59.904;10.738;2022-08-11T15:12:45;2.75;;;1.38;;
74293;SDS011;62688;59.904;10.738;2022-08-11T15:15:12;1.75;;;1.50;;
74293;SDS011;62688;59.904;10.738;2022-08-11T15:17:58;4.72;;;1.48;;
74293;SDS011;62688;59.904;10.738;2022-08-11T15:20:27;4.30;;;1.48;;
74293;SDS011;62688;59.904;10.738;2022-08-11T15:23:12;3.97;;;1.50;;
74293;SDS011;62688;59.904;10.738;2022-08-11T15:26:10;2.17;;;1.33;;
74293;SDS011;62688;59.904;10.738;2022-08-11T15:28:45;2.88;;;1.10;;
74293;SDS011;62688;59.904;10.738;2022-08-11T15:31:35;1.33;;;1.10;;
74293;SDS011;62688;59.904;10.738;2022-08-11T15:34:23;2.10;;;1.25;;
74293;SDS011;62688;59.904;10.738;2022-08-11T15:37:12;2.27;;;1.30;;
74293;SDS011;62688;59.904;10.738;2022-08-11T15:42:44;6.47;;;1.45;;
74293;SDS011;62688;59.904;10.738;2022-08-11T15:45:41;3.97;;;1.40;;
74293;SDS011;62688;59.904;10.738;2022-08-11T15:49:02;2.60;;;1.33;;
74293;SDS011;62688;59.904;10.738;2022-08-11T15:51:28;3.88;;;1.35;;
74293;SDS011;62688;59.904;10.738;2022-08-11T15:53:58;2.05;;;1.33;;
74293;SDS011;62688;59.904;10.738;2022-08-11T15:56:33;1.73;;;1.10;;
74293;SDS011;62688;59.904;10.738;2022-08-11T15:59:02;2.78;;;1.40;;
74293;SDS011;62688;59.904;10.738;2022-08-11T16:01:48;2.78;;;1.25;;
74293;SDS011;62688;59.904;10.738;2022-08-11T16:04:36;3.55;;;1.40;;
74293;SDS011;62688;59.904;10.738;2022-08-11T16:07:04;2.17;;;1.40;;
74293;SDS011;62688;59.904;10.738;2022-08-11T16:09:44;5.60;;;1.70;;
74293;SDS011;62688;59.904;10.738;2022-08-11T16:12:12;3.85;;;1.55;;
74293;SDS011;62688;59.904;10.738;2022-08-11T16:14:44;6.27;;;1.43;;
74293;SDS011;62688;59.904;10.738;2022-08-11T16:17:32;2.13;;;1.08;;
74293;SDS011;62688;59.904;10.738;2022-08-11T16:20:02;1.92;;;1.60;;
74293;SDS011;62688;59.904;10.738;2022-08-11T16:22:29;3.35;;;1.35;;
74293;SDS011;62688;59.904;10.738;2022-08-11T16:25:09;2.65;;;1.60;;
74293;SDS011;62688;59.904;10.738;2022-08-11T16:27:40;5.47;;;1.67;;
74293;SDS011;62688;59.904;10.738;2022-08-11T16:30:09;1.45;;;1.30;;
74293;SDS011;62688;59.904;10.738;2022-08-11T16:32:37;1.83;;;1.33;;
74293;SDS011;62688;59.904;10.738;2022-08-11T16:35:06;4.23;;;1.40;;
74293;SDS011;62688;59.904;10.738;2022-08-11T16:38:10;3.63;;;1.70;;
74293;SDS011;62688;59.904;10.738;2022-08-11T16:40:55;5.85;;;2.00;;
74293;SDS011;62688;59.904;10.738;2022-08-11T16:43:25;3.00;;;1.30;;
74293;SDS011;62688;59.904;10.738;2022-08-11T16:46:12;3.50;;;1.45;;
74293;SDS011;62688;59.904;10.738;2022-08-11T16:49:06;3.28;;;1.60;;
74293;SDS011;62688;59.904;10.738;2022-08-11T16:51:35;4.38;;;1.50;;
74293;SDS011;62688;59.904;10.738;2022-08-11T16:54:01;2.03;;;1.25;;
74293;SDS011;62688;59.904;10.738;2022-08-11T16:56:28;5.82;;;2.00;;
74293;SDS011;62688;59.904;10.738;2022-08-11T16:58:59;3.08;;;1.75;;
74293;SDS011;62688;59.904;10.738;2022-08-11T17:04:51;7.30;;;1.88;;
74293;SDS011;62688;59.904;10.738;2022-08-11T17:07:37;4.35;;;1.73;;
74293;SDS011;62688;59.904;10.738;2022-08-11T17:10:25;3.30;;;1.75;;
74293;SDS011;62688;59.904;10.738;2022-08-11T17:13:16;2.72;;;1.60;;
74293;SDS011;62688;59.904;10.738;2022-08-11T17:15:45;4.43;;;1.80;;
74293;SDS011;62688;59.904;10.738;2022-08-11T17:18:33;2.97;;;1.85;;
74293;SDS011;62688;59.904;10.738;2022-08-11T17:21:04;4.75;;;1.90;;
74293;SDS011;62688;59.904;10.738;2022-08-11T17:23:52;3.95;;;1.60;;
74293;SDS011;62688;59.904;10.738;2022-08-11T17:29:28;3.53;;;1.80;;
74293;SDS011;62688;59.904;10.738;2022-08-11T17:32:12;4.15;;;1.75;;
74293;SDS011;62688;59.904;10.738;2022-08-11T17:35:00;8.48;;;1.95;;
74293;SDS011;62688;59.904;10.738;2022-08-11T17:38:00;5.30;;;2.00;;
74293;SDS011;62688;59.904;10.738;2022-08-11T17:40:46;6.60;;;2.10;;
74293;SDS011;62688;59.904;10.738;2022-08-11T17:43:34;4.22;;;1.92;;
74293;SDS011;62688;59.904;10.738;2022-08-11T17:46:19;2.53;;;1.58;;
74293;SDS011;62688;59.904;10.738;2022-08-11T17:49:04;3.85;;;1.88;;
74293;SDS011;62688;59.904;10.738;2022-08-11T17:51:32;5.47;;;2.28;;
74293;SDS011;62688;59.904;10.738;2022-08-11T17:54:18;5.43;;;2.42;;
74293;SDS011;62688;59.904;10.738;2022-08-11T17:57:04;3.45;;;1.63;;
74293;SDS011;62688;59.904;10.738;2022-08-11T17:59:50;7.72;;;1.90;;
74293;SDS011;62688;59.904;10.738;2022-08-11T18:02:21;6.05;;;1.70;;
74293;SDS011;62688;59.904;10.738;2022-08-11T18:05:11;4.60;;;1.85;;
74293;SDS011;62688;59.904;10.738;2022-08-11T18:07:38;3.95;;;1.55;;
74293;SDS011;62688;59.904;10.738;2022-08-11T18:10:24;6.43;;;2.13;;
74293;SDS011;62688;59.904;10.738;2022-08-11T18:13:09;5.43;;;2.40;;
74293;SDS011;62688;59.904;10.738;2022-08-11T18:15:54;4.00;;;1.88;;
74293;SDS011;62688;59.904;10.738;2022-08-11T18:18:38;3.47;;;1.63;;
74293;SDS011;62688;59.904;10.738;2022-08-11T18:21:23;4.65;;;1.67;;
74293;SDS011;62688;59.904;10.738;2022-08-11T18:24:11;3.35;;;1.60;;
74293;SDS011;62688;59.904;10.738;2022-08-11T18:27:01;4.72;;;2.00;;
74293;SDS011;62688;59.904;10.738;2022-08-11T18:29:48;5.05;;;1.73;;
74293;SDS011;62688;59.904;10.738;2022-08-11T18:32:35;5.68;;;2.22;;
74293;SDS011;62688;59.904;10.738;2022-08-11T18:35:21;4.13;;;2.10;;
74293;SDS011;62688;59.904;10.738;2022-08-11T18:38:08;6.10;;;1.98;;
74293;SDS011;62688;59.904;10.738;2022-08-11T18:44:05;4.60;;;1.63;;
74293;SDS011;62688;59.904;10.738;2022-08-11T18:46:52;5.40;;;2.08;;
74293;SDS011;62688;59.904;10.738;2022-08-11T18:49:40;6.28;;;2.28;;
74293;SDS011;62688;59.904;10.738;2022-08-11T18:52:27;6.30;;;2.00;;
74293;SDS011;62688;59.904;10.738;2022-08-11T18:55:13;9.85;;;2.90;;
74293;SDS011;62688;59.904;10.738;2022-08-11T18:58:03;6.93;;;2.28;;
74293;SDS011;62688;59.904;10.738;2022-08-11T19:00:54;6.18;;;2.47;;
74293;SDS011;62688;59.904;10.738;2022-08-11T19:03:40;6.80;;;2.47;;
74293;SDS011;62688;59.904;10.738;2022-08-11T19:06:26;3.88;;;2.10;;
74293;SDS011;62688;59.904;10.738;2022-08-11T19:09:13;7.20;;;2.70;;
74293;SDS011;62688;59.904;10.738;2022-08-11T19:11:59;5.55;;;2.08;;
74293;SDS011;62688;59.904;10.738;2022-08-11T19:14:46;7.43;;;2.25;;
74293;SDS011;62688;59.904;10.738;2022-08-11T19:17:32;6.63;;;2.13;;
74293;SDS011;62688;59.904;10.738;2022-08-11T19:20:22;5.57;;;2.22;;
74293;SDS011;62688;59.904;10.738;2022-08-11T19:23:09;7.35;;;2.50;;
74293;SDS011;62688;59.904;10.738;2022-08-11T19:25:56;6.18;;;2.10;;
74293;SDS011;62688;59.904;10.738;2022-08-11T19:28:41;8.05;;;2.38;;
74293;SDS011;62688;59.904;10.738;2022-08-11T19:31:29;7.55;;;2.33;;
74293;SDS011;62688;59.904;10.738;2022-08-11T19:34:15;6.53;;;2.53;;
74293;SDS011;62688;59.904;10.738;2022-08-11T19:37:02;8.00;;;2.72;;